createdAt,value
2019-03-04T00:01:51.023Z,53.20
2019-03-04T00:04:21.641Z,53.10
2019-03-04T00:06:52.031Z,53.00
2019-03-04T00:09:21.925Z,53.00
2019-03-04T00:11:51.696Z,53.00
2019-03-04T00:14:21.261Z,53.10
2019-03-04T00:16:50.879Z,53.00
2019-03-04T00:19:20.482Z,52.90
2019-03-04T00:21:50.037Z,52.80
2019-03-04T00:24:19.629Z,52.90
2019-03-04T00:26:49.288Z,52.90
2019-03-04T00:29:19.053Z,52.90
2019-03-04T00:31:48.587Z,53.20
2019-03-04T00:34:18.822Z,53.40
2019-03-04T00:36:48.504Z,53.80
2019-03-04T00:39:18.193Z,53.80
2019-03-04T00:41:47.798Z,53.90
2019-03-04T00:44:17.639Z,54.20
2019-03-04T00:46:47.235Z,54.60
2019-03-04T00:51:52.037Z,54.90
2019-03-04T00:54:21.585Z,55.20
2019-03-04T00:56:51.272Z,54.70
2019-03-04T00:59:21.460Z,54.60
2019-03-04T01:01:51.224Z,54.80
2019-03-04T01:04:20.870Z,55.00
2019-03-04T01:06:50.576Z,54.60
2019-03-04T01:09:20.292Z,54.60
2019-03-04T01:11:50.000Z,54.20
2019-03-04T01:14:19.792Z,54.00
2019-03-04T01:16:49.400Z,53.80
2019-03-04T01:19:19.075Z,53.40
2019-03-04T01:21:48.712Z,53.60
2019-03-04T01:24:18.494Z,53.00
2019-03-04T01:26:48.004Z,52.60
2019-03-04T01:29:17.609Z,52.00
2019-03-04T01:31:47.147Z,52.10
2019-03-04T01:34:16.689Z,51.60
2019-03-04T01:36:46.278Z,51.70
2019-03-04T01:39:16.330Z,51.80
2019-03-04T01:41:45.876Z,51.50
2019-03-04T01:44:16.455Z,51.40
2019-03-04T01:46:46.039Z,51.30
2019-03-04T01:49:16.019Z,51.20
2019-03-04T01:51:45.635Z,50.80
2019-03-04T01:54:15.501Z,50.70
2019-03-04T01:56:45.062Z,50.60
2019-03-04T01:59:14.982Z,50.70
2019-03-04T02:01:44.768Z,50.70
2019-03-04T02:04:14.291Z,50.80
2019-03-04T02:06:44.040Z,50.60
2019-03-04T02:09:13.792Z,50.60
2019-03-04T02:11:43.354Z,50.70
2019-03-04T02:14:13.189Z,50.80
2019-03-04T02:16:42.794Z,50.70
2019-03-04T02:19:12.804Z,50.70
2019-03-04T02:21:42.404Z,50.90
2019-03-04T02:24:22.640Z,51.10
2019-03-04T02:26:52.784Z,51.40
2019-03-04T02:29:22.438Z,51.70
2019-03-04T02:31:52.061Z,51.90
2019-03-04T02:34:21.716Z,52.20
2019-03-04T02:36:51.271Z,52.30
2019-03-04T02:39:21.640Z,52.40
2019-03-04T02:41:51.236Z,52.70
2019-03-04T02:44:21.136Z,52.70
2019-03-04T02:46:50.703Z,52.80
2019-03-04T02:49:20.378Z,53.10
2019-03-04T02:51:50.388Z,53.30
2019-03-04T02:54:20.531Z,53.00
2019-03-04T02:56:50.079Z,52.90
2019-03-04T02:59:19.883Z,53.50
2019-03-04T03:02:01.596Z,53.40
2019-03-04T03:24:03.865Z,54.00
2019-03-04T03:26:33.387Z,53.60
2019-03-04T03:29:03.094Z,52.90
2019-03-04T03:31:32.816Z,53.80
2019-03-04T03:34:02.802Z,53.90
2019-03-04T03:36:32.353Z,53.50
2019-03-04T03:39:02.697Z,52.70
2019-03-04T03:41:32.257Z,53.00
2019-03-04T03:44:02.533Z,53.00
2019-03-04T03:46:32.105Z,52.90
2019-03-04T03:49:01.669Z,53.30
2019-03-04T03:51:31.245Z,52.80
2019-03-04T03:54:01.295Z,53.00
2019-03-04T03:56:30.872Z,53.00
2019-03-04T03:59:00.892Z,53.20
2019-03-04T04:01:30.492Z,52.80
2019-03-04T04:04:00.040Z,52.80
2019-03-04T04:06:29.772Z,52.90
2019-03-04T04:08:59.692Z,52.50
2019-03-04T04:11:29.333Z,52.60
2019-03-04T04:13:59.086Z,52.60
2019-03-04T04:16:28.896Z,52.40
2019-03-04T04:18:59.055Z,52.80
2019-03-04T04:21:28.684Z,52.50
2019-03-04T04:23:58.376Z,53.00
2019-03-04T04:26:27.935Z,52.40
2019-03-04T04:29:09.874Z,52.00
2019-03-04T04:31:39.442Z,51.90
2019-03-04T04:34:09.000Z,52.20
2019-03-04T04:36:38.578Z,52.10
2019-03-04T04:39:08.956Z,52.10
2019-03-04T04:41:38.512Z,52.50
2019-03-04T04:44:08.324Z,52.30
2019-03-04T04:46:57.164Z,52.30
2019-03-04T04:49:31.832Z,52.80
2019-03-04T04:52:01.411Z,52.30
2019-03-04T04:57:06.785Z,52.30
2019-03-04T04:59:36.469Z,52.30
2019-03-04T05:02:06.193Z,52.10
2019-03-04T05:04:35.979Z,51.70
2019-03-04T05:12:24.021Z,51.90
2019-03-04T05:14:53.690Z,51.60
2019-03-04T05:17:23.347Z,51.00
2019-03-04T05:19:53.027Z,51.30
2019-03-04T05:22:22.656Z,51.40
2019-03-04T05:24:52.296Z,51.20
2019-03-04T05:27:21.879Z,51.30
2019-03-04T05:29:51.488Z,51.20
2019-03-04T05:32:22.522Z,51.30
2019-03-04T05:34:52.313Z,51.20
2019-03-04T05:37:23.825Z,50.50
2019-03-04T05:39:53.428Z,49.70
2019-03-04T05:42:24.540Z,49.20
2019-03-04T05:44:55.215Z,48.70
2019-03-04T05:47:24.770Z,48.80
2019-03-04T05:49:54.291Z,48.60
2019-03-04T05:52:24.002Z,48.60
2019-03-04T05:54:53.611Z,47.80
2019-03-04T05:57:23.178Z,47.40
2019-03-04T05:59:52.688Z,46.70
2019-03-04T06:02:22.499Z,46.60
2019-03-04T06:04:52.998Z,45.60
2019-03-04T06:07:34.173Z,45.50
2019-03-04T06:10:03.818Z,45.60
2019-03-04T06:12:33.439Z,44.20
2019-03-04T06:15:03.083Z,43.90
2019-03-04T06:17:32.868Z,44.40
2019-03-04T06:20:02.435Z,44.60
2019-03-04T06:22:32.109Z,44.30
2019-03-04T06:25:01.567Z,44.50
2019-03-04T06:27:31.272Z,44.30
2019-03-04T06:30:00.751Z,44.30
2019-03-04T06:32:30.464Z,44.20
2019-03-04T06:35:00.029Z,44.60
2019-03-04T06:37:29.762Z,44.40
2019-03-04T06:40:00.401Z,44.50
2019-03-04T06:42:29.926Z,44.00
2019-03-04T06:44:59.558Z,44.00
2019-03-04T06:47:29.419Z,43.70
2019-03-04T06:49:59.039Z,44.00
2019-03-04T06:52:28.597Z,44.10
2019-03-04T06:55:26.307Z,43.80
2019-03-04T06:57:55.936Z,43.80
2019-03-04T07:00:46.304Z,43.30
2019-03-04T07:03:22.783Z,43.10
2019-03-04T07:05:53.151Z,43.20
2019-03-04T07:09:08.107Z,42.90
2019-03-04T07:11:38.498Z,42.70
2019-03-04T07:14:08.171Z,42.60
2019-03-04T07:16:37.959Z,41.60
2019-03-04T07:19:22.214Z,41.20
2019-03-04T07:21:51.912Z,40.30
2019-03-04T07:24:21.597Z,41.20
2019-03-04T07:26:51.335Z,41.10
2019-03-04T07:29:21.897Z,41.30
2019-03-04T07:31:51.579Z,40.10
2019-03-04T07:34:21.094Z,40.00
2019-03-04T07:36:50.691Z,38.60
2019-03-04T07:39:21.453Z,38.70
2019-03-04T07:41:55.608Z,36.80
2019-03-04T07:44:25.176Z,36.10
2019-03-04T07:46:54.860Z,35.80
2019-03-04T07:49:24.439Z,35.20
2019-03-04T07:51:54.128Z,34.70
2019-03-04T07:54:23.688Z,34.50
2019-03-04T07:56:53.399Z,33.40
2019-03-04T07:59:22.976Z,33.20
2019-03-04T08:01:52.544Z,32.20
2019-03-04T08:04:23.322Z,31.70
2019-03-04T08:07:04.962Z,31.70
2019-03-04T08:10:01.870Z,30.90
2019-03-04T08:13:03.371Z,31.30
2019-03-04T08:15:38.915Z,30.90
2019-03-04T08:18:08.703Z,30.60
2019-03-04T08:20:38.388Z,30.80
2019-03-04T08:23:10.284Z,29.00
2019-03-04T08:25:41.795Z,28.20
2019-03-04T08:28:14.194Z,26.80
2019-03-04T08:30:43.989Z,25.90
2019-03-04T08:33:14.923Z,25.20
2019-03-04T08:35:44.849Z,24.90
2019-03-04T08:38:14.430Z,23.90
2019-03-04T08:40:46.060Z,23.40
2019-03-04T08:43:15.770Z,23.00
2019-03-04T08:45:45.499Z,23.30
2019-03-04T08:48:15.507Z,23.50
2019-03-04T08:50:45.317Z,23.20
2019-03-04T08:53:15.149Z,22.50
2019-03-04T08:55:45.664Z,21.50
2019-03-04T08:58:15.411Z,21.30
2019-03-04T09:00:45.341Z,20.30
2019-03-04T09:03:15.265Z,20.40
2019-03-04T09:05:45.120Z,19.80
2019-03-04T09:08:15.637Z,20.00
2019-03-04T09:10:45.570Z,20.20
2019-03-04T09:13:15.107Z,21.30
2019-03-04T09:15:44.980Z,22.20
2019-03-04T09:18:14.880Z,22.40
2019-03-04T09:20:44.664Z,22.40
2019-03-04T09:23:14.840Z,22.40
2019-03-04T09:25:47.970Z,21.50
2019-03-04T09:28:18.026Z,22.30
2019-03-04T09:30:47.710Z,21.60
2019-03-04T09:33:17.725Z,21.40
2019-03-04T09:35:47.402Z,21.70
2019-03-04T09:38:17.286Z,21.40
2019-03-04T09:40:47.171Z,21.40
2019-03-04T09:43:16.780Z,21.60
2019-03-04T09:45:46.577Z,21.30
2019-03-04T09:48:17.172Z,21.40
2019-03-04T09:50:47.458Z,22.10
2019-03-04T09:53:17.965Z,22.70
2019-03-04T09:55:47.576Z,23.30
2019-03-04T09:58:18.405Z,24.00
2019-03-04T10:01:14.611Z,24.00
2019-03-04T10:04:25.723Z,24.30
2019-03-04T10:07:26.542Z,24.30
2019-03-04T10:10:38.596Z,24.30
2019-03-04T10:13:36.107Z,24.20
2019-03-04T10:16:45.633Z,24.70
2019-03-04T10:19:56.370Z,24.80
2019-03-04T10:23:03.816Z,24.60
2019-03-04T10:26:22.737Z,24.50
2019-03-04T10:29:08.548Z,25.00
2019-03-04T10:32:02.620Z,26.10
2019-03-04T10:35:19.484Z,26.90
2019-03-04T10:38:08.310Z,28.10
2019-03-04T10:41:11.888Z,28.20
2019-03-04T10:44:30.240Z,28.50
2019-03-04T10:47:00.823Z,28.20
2019-03-04T10:49:31.647Z,27.80
2019-03-04T10:52:01.579Z,27.40
2019-03-04T10:54:31.485Z,26.90
2019-03-04T10:57:01.295Z,27.50
2019-03-04T10:59:31.043Z,28.00
2019-03-04T11:02:01.396Z,27.80
2019-03-04T11:04:31.388Z,27.80
2019-03-04T11:07:01.246Z,28.00
2019-03-04T11:09:31.375Z,28.10
2019-03-04T11:12:01.191Z,28.80
2019-03-04T11:14:30.766Z,29.80
2019-03-04T11:17:00.500Z,31.00
2019-03-04T11:19:30.126Z,32.90
2019-03-04T11:22:00.843Z,33.70
2019-03-04T11:24:30.556Z,34.60
2019-03-04T11:27:00.200Z,35.10
2019-03-04T11:29:29.900Z,36.00
2019-03-04T11:31:59.653Z,36.50
2019-03-04T11:34:29.395Z,36.60
2019-03-04T11:36:59.040Z,37.30
2019-03-04T11:39:47.867Z,37.90
2019-03-04T11:42:18.601Z,38.20
2019-03-04T11:44:48.151Z,39.00
2019-03-04T11:47:19.861Z,39.80
2019-03-04T11:49:49.516Z,40.80
2019-03-04T11:52:19.519Z,41.40
2019-03-04T11:54:49.143Z,42.10
2019-03-04T11:57:18.942Z,42.80
2019-03-04T11:59:48.598Z,43.60
2019-03-04T12:02:20.682Z,44.50
2019-03-04T12:04:50.359Z,45.30
2019-03-04T12:07:20.302Z,45.80
2019-03-04T12:09:50.082Z,46.10
2019-03-04T12:12:20.119Z,45.70
2019-03-04T12:14:49.726Z,45.20
2019-03-04T12:17:19.555Z,45.30
2019-03-04T12:19:49.167Z,44.80
2019-03-04T12:22:19.999Z,45.30
2019-03-04T12:24:49.866Z,45.30
2019-03-04T12:27:19.852Z,45.40
2019-03-04T12:29:49.470Z,45.10
2019-03-04T12:32:22.847Z,45.40
2019-03-04T12:34:52.581Z,45.80
2019-03-04T12:37:22.769Z,46.40
2019-03-04T12:39:52.527Z,46.70
2019-03-04T12:42:22.215Z,47.10
2019-03-04T12:44:51.871Z,47.20
2019-03-04T12:47:21.808Z,47.00
2019-03-04T12:49:51.550Z,47.50
2019-03-04T12:52:24.580Z,47.90
2019-03-04T12:54:54.423Z,48.50
2019-03-04T12:57:24.318Z,48.80
2019-03-04T12:59:54.222Z,48.70
2019-03-04T13:02:23.965Z,48.70
2019-03-04T13:04:53.803Z,49.40
2019-03-04T13:07:23.867Z,49.70
2019-03-04T13:09:53.691Z,50.30
2019-03-04T13:12:23.258Z,50.50
2019-03-04T13:14:53.103Z,51.10
2019-03-04T13:17:22.772Z,51.70
2019-03-04T13:19:52.680Z,52.40
2019-03-04T13:22:22.413Z,52.80
2019-03-04T13:24:52.540Z,53.00
2019-03-04T13:27:24.042Z,53.60
2019-03-04T13:29:53.569Z,53.90
2019-03-04T13:32:23.142Z,54.00
2019-03-04T13:34:53.004Z,54.10
2019-03-04T13:37:22.696Z,54.10
2019-03-04T13:39:53.050Z,53.60
2019-03-04T13:42:22.706Z,53.60
2019-03-04T13:44:52.436Z,53.90
2019-03-04T13:47:22.047Z,53.80
2019-03-04T13:49:51.832Z,53.70
2019-03-04T13:52:21.520Z,54.10
2019-03-04T13:54:51.257Z,54.10
2019-03-04T13:57:21.061Z,54.30
2019-03-04T13:59:51.219Z,54.20
2019-03-04T14:02:21.060Z,54.00
2019-03-04T14:04:50.866Z,53.80
2019-03-04T14:07:21.132Z,53.30
2019-03-04T14:09:50.800Z,53.10
2019-03-04T14:12:20.505Z,53.40
2019-03-04T14:14:50.137Z,53.50
2019-03-04T14:17:19.957Z,53.70
2019-03-04T14:19:49.535Z,53.60
2019-03-04T14:22:19.350Z,53.90
2019-03-04T14:24:49.686Z,54.30
2019-03-04T14:27:19.499Z,54.50
2019-03-04T14:29:49.319Z,54.70
2019-03-04T14:32:19.665Z,55.00
2019-03-04T14:34:50.991Z,55.20
2019-03-04T14:37:21.887Z,55.80
2019-03-04T14:39:51.645Z,56.30
2019-03-04T14:42:21.371Z,56.30
2019-03-04T14:44:51.351Z,56.50
2019-03-04T14:47:20.990Z,57.80
2019-03-04T14:49:51.094Z,57.10
2019-03-04T14:52:20.786Z,58.20
2019-03-04T14:54:50.819Z,58.40
2019-03-04T14:57:20.547Z,58.70
2019-03-04T14:59:50.235Z,58.90
2019-03-04T15:02:20.037Z,58.80
2019-03-04T15:04:50.496Z,58.90
2019-03-04T15:07:20.089Z,58.90
2019-03-04T15:09:50.319Z,58.70
2019-03-04T15:12:19.978Z,58.90
2019-03-04T15:14:49.649Z,58.80
2019-03-04T15:17:30.554Z,59.00
2019-03-04T15:20:08.867Z,58.90
2019-03-04T15:22:35.158Z,58.70
2019-03-04T15:25:03.316Z,58.40
2019-03-04T15:27:32.951Z,58.70
2019-03-04T15:30:03.510Z,58.50
2019-03-04T15:32:33.150Z,58.10
2019-03-04T15:35:02.935Z,58.10
2019-03-04T15:37:33.645Z,58.00
2019-03-04T15:40:03.418Z,56.60
2019-03-04T15:42:33.515Z,57.40
2019-03-04T15:45:04.291Z,57.00
2019-03-04T15:47:33.969Z,56.10
2019-03-04T15:50:07.488Z,55.90
2019-03-04T15:52:37.100Z,55.70
2019-03-04T15:55:07.643Z,55.00
2019-03-04T15:57:37.595Z,54.70
2019-03-04T16:00:09.312Z,55.60
2019-03-04T16:02:39.263Z,55.80
2019-03-04T16:05:10.431Z,55.30
2019-03-04T16:07:40.143Z,54.80
2019-03-04T16:10:12.235Z,53.30
2019-03-04T16:12:42.266Z,53.10
2019-03-04T16:15:14.469Z,52.80
2019-03-04T16:17:43.995Z,52.40
2019-03-04T16:20:16.484Z,52.30
2019-03-04T16:22:46.423Z,52.40
2019-03-04T16:25:16.904Z,51.70
2019-03-04T16:27:46.732Z,51.40
2019-03-04T16:30:19.053Z,51.00
2019-03-04T16:32:48.998Z,50.60
2019-03-04T16:35:18.974Z,50.00
2019-03-04T16:37:48.784Z,50.00
2019-03-04T16:40:18.456Z,49.80
2019-03-04T16:42:48.244Z,49.20
2019-03-04T16:45:18.000Z,49.00
2019-03-04T16:47:48.205Z,48.30
2019-03-04T16:50:17.922Z,48.10
2019-03-04T16:52:48.047Z,47.10
2019-03-04T16:55:18.367Z,47.00
2019-03-04T16:57:48.707Z,47.00
2019-03-04T17:00:19.929Z,46.90
2019-03-04T17:02:50.707Z,47.20
2019-03-04T17:05:21.054Z,47.00
2019-03-04T17:07:51.528Z,46.90
2019-03-04T17:10:21.466Z,46.90
2019-03-04T17:12:51.240Z,46.80
2019-03-04T17:15:21.692Z,47.00
2019-03-04T17:17:51.826Z,47.20
2019-03-04T17:20:21.517Z,47.20
2019-03-04T17:22:51.105Z,47.10
2019-03-04T17:25:22.355Z,47.20
2019-03-04T17:27:51.976Z,47.20
2019-03-04T17:30:21.779Z,47.00
2019-03-04T17:32:51.417Z,46.60
2019-03-04T17:35:21.333Z,46.70
2019-03-04T17:37:50.964Z,46.50
2019-03-04T17:40:21.164Z,46.50
2019-03-04T17:42:50.825Z,46.60
2019-03-04T17:45:20.987Z,46.70
2019-03-04T17:47:51.017Z,46.90
2019-03-04T17:50:28.968Z,47.10
2019-03-04T17:52:58.779Z,47.00
2019-03-04T17:55:29.120Z,46.90
2019-03-04T17:57:58.820Z,46.90
2019-03-04T18:00:29.059Z,46.60
2019-03-04T18:02:59.381Z,46.40
2019-03-04T18:05:29.249Z,45.80
2019-03-04T18:07:58.941Z,45.90
2019-03-04T18:10:28.845Z,45.40
2019-03-04T18:12:59.051Z,44.90
2019-03-04T18:15:28.882Z,44.80
2019-03-04T18:17:59.257Z,44.50
2019-03-04T18:20:34.445Z,45.00
2019-03-04T18:23:01.376Z,45.10
2019-03-04T18:25:37.708Z,45.60
2019-03-04T18:28:22.071Z,46.30
2019-03-04T18:31:22.817Z,46.60
2019-03-04T18:34:33.981Z,47.70
2019-03-04T18:37:36.799Z,48.60
2019-03-04T18:40:27.971Z,49.50
2019-03-04T18:43:32.307Z,50.20
2019-03-04T18:46:55.359Z,50.70
2019-03-04T18:49:25.942Z,51.30
2019-03-04T18:51:55.501Z,51.70
2019-03-04T18:54:25.250Z,52.00
2019-03-04T18:56:56.037Z,52.60
2019-03-04T18:59:26.511Z,52.70
2019-03-04T19:01:56.725Z,53.20
2019-03-04T19:04:26.994Z,53.30
2019-03-04T19:06:57.023Z,53.60
2019-03-04T19:09:27.395Z,54.10
2019-03-04T19:11:57.188Z,54.90
2019-03-04T19:14:27.496Z,56.10
2019-03-04T19:16:57.256Z,59.40
2019-03-04T19:19:26.888Z,65.20
2019-03-04T19:21:56.459Z,70.70
2019-03-04T19:24:26.968Z,75.20
2019-03-04T19:26:56.683Z,78.00
2019-03-04T19:29:26.368Z,79.90
2019-03-04T19:31:56.181Z,81.80
2019-03-04T19:34:26.305Z,84.00
2019-03-04T19:36:56.805Z,85.20
2019-03-04T19:39:26.540Z,87.30
2019-03-04T19:41:56.593Z,88.80
2019-03-04T19:44:26.203Z,90.10
2019-03-04T19:46:55.846Z,90.30
2019-03-04T19:49:26.097Z,90.50
2019-03-04T19:51:55.834Z,90.70
2019-03-04T19:54:26.257Z,90.80
2019-03-04T19:56:56.043Z,90.50
2019-03-04T19:59:26.891Z,90.90
2019-03-04T20:01:57.726Z,91.00
2019-03-04T20:04:27.409Z,90.90
2019-03-04T20:06:57.331Z,91.00
2019-03-04T20:09:27.799Z,91.10
2019-03-04T20:11:57.407Z,91.10
2019-03-04T20:14:27.503Z,90.80
2019-03-04T20:16:58.143Z,90.40
2019-03-04T20:19:27.771Z,90.60
2019-03-04T20:21:57.895Z,90.50
2019-03-04T20:24:28.890Z,90.70
2019-03-04T20:26:58.527Z,91.00
2019-03-04T20:29:28.861Z,91.30
2019-03-04T20:31:58.718Z,91.20
2019-03-04T20:34:29.702Z,91.20
2019-03-04T20:36:59.980Z,91.10
2019-03-04T20:39:30.338Z,91.20
2019-03-04T20:42:00.831Z,91.30
2019-03-04T20:44:31.223Z,91.50
2019-03-04T20:47:00.800Z,91.60
2019-03-04T20:49:30.477Z,92.10
2019-03-04T20:52:00.106Z,92.40
2019-03-04T20:57:11.895Z,92.90
2019-03-04T20:59:41.626Z,93.10
2019-03-04T21:02:11.172Z,93.60
2019-03-04T21:04:41.998Z,93.60
2019-03-04T21:07:11.505Z,93.60
2019-03-04T21:09:41.121Z,93.90
2019-03-04T21:12:11.291Z,93.90
2019-03-04T21:14:40.808Z,93.80
2019-03-04T21:17:10.967Z,93.90
2019-03-04T21:19:41.053Z,93.90
2019-03-04T21:22:10.692Z,93.20
2019-03-04T21:24:40.372Z,93.60
2019-03-04T21:27:10.103Z,93.70
2019-03-04T21:30:20.609Z,93.70
2019-03-04T21:33:21.424Z,93.50
2019-03-04T21:36:24.765Z,93.60
2019-03-04T21:38:57.520Z,93.40
2019-03-04T21:41:48.073Z,93.10
2019-03-04T21:44:59.886Z,92.90
2019-03-04T21:47:35.673Z,92.90
2019-03-04T21:50:06.911Z,92.40
2019-03-04T21:52:40.540Z,92.40
2019-03-04T21:55:14.114Z,92.80
2019-03-04T21:57:49.983Z,93.00
2019-03-04T22:00:24.472Z,93.30
2019-03-04T22:03:01.322Z,93.40
2019-03-04T22:05:32.995Z,93.70
2019-03-04T22:08:03.463Z,93.60
2019-03-04T22:10:34.235Z,93.50
2019-03-04T22:13:03.885Z,93.30
2019-03-04T22:15:33.697Z,93.10
2019-03-04T22:18:04.387Z,93.10
2019-03-04T22:20:35.139Z,92.90
2019-03-04T22:23:05.611Z,92.80
2019-03-04T22:25:35.181Z,93.10
2019-03-04T22:28:05.757Z,92.80
2019-03-04T22:30:35.477Z,92.50
2019-03-04T22:33:06.097Z,92.30
2019-03-04T22:35:35.804Z,92.10
2019-03-04T22:38:06.352Z,92.10
2019-03-04T22:40:36.048Z,91.90
2019-03-04T22:43:08.968Z,91.80
2019-03-04T22:45:38.636Z,91.90
2019-03-04T22:48:10.252Z,92.10
2019-03-04T22:50:39.911Z,91.30
2019-03-04T22:53:13.633Z,91.00
2019-03-04T22:55:43.197Z,91.10
2019-03-04T22:58:12.722Z,91.00
2019-03-04T23:01:37.111Z,91.20
2019-03-04T23:04:17.978Z,90.90
2019-03-04T23:06:56.367Z,90.60
2019-03-04T23:09:27.443Z,90.80
2019-03-04T23:12:03.931Z,90.80
2019-03-04T23:14:33.701Z,91.00
2019-03-04T23:17:03.371Z,90.50
2019-03-04T23:19:32.987Z,90.50
2019-03-04T23:22:02.618Z,88.10
2019-03-04T23:24:32.392Z,88.60
2019-03-04T23:27:01.937Z,89.30
2019-03-04T23:29:31.671Z,88.30
2019-03-04T23:32:01.275Z,87.50
2019-03-04T23:34:30.899Z,87.30
2019-03-04T23:37:00.416Z,86.60
2019-03-04T23:39:30.272Z,87.20
2019-03-04T23:41:59.880Z,87.30
2019-03-04T23:44:29.659Z,86.70
2019-03-04T23:46:59.159Z,87.10
2019-03-04T23:49:28.773Z,86.70
2019-03-04T23:51:58.387Z,86.90
2019-03-04T23:54:27.996Z,86.50
2019-03-04T23:56:57.571Z,85.80
2019-03-04T23:59:27.250Z,85.90
